createdAt,value
2017-11-07T00:00:20.467Z,13.03
2017-11-07T00:02:48.030Z,9.70
2017-11-07T00:05:15.586Z,9.53
2017-11-07T00:07:43.082Z,11.83
2017-11-07T00:10:16.083Z,10.10
2017-11-07T00:12:43.564Z,8.13
2017-11-07T00:15:11.090Z,7.57
2017-11-07T00:17:38.586Z,8.90
2017-11-07T00:20:06.089Z,7.50
2017-11-07T00:22:35.392Z,9.30
2017-11-07T00:25:02.914Z,17.03
2017-11-07T00:27:30.422Z,10.33
2017-11-07T00:29:57.941Z,9.13
2017-11-07T00:32:25.433Z,8.53
2017-11-07T00:34:52.936Z,11.03
2017-11-07T00:37:20.434Z,9.30
2017-11-07T00:39:47.924Z,12.37
2017-11-07T00:42:15.430Z,14.50
2017-11-07T00:44:42.927Z,10.53
2017-11-07T00:47:10.410Z,9.80
2017-11-07T00:49:37.941Z,12.00
2017-11-07T00:52:05.462Z,10.60
2017-11-07T00:54:33.006Z,10.83
2017-11-07T00:57:00.500Z,9.30
2017-11-07T00:59:27.997Z,9.23
2017-11-07T01:01:55.546Z,9.30
2017-11-07T01:04:23.039Z,8.37
2017-11-07T01:06:50.551Z,8.83
2017-11-07T01:09:18.050Z,10.67
2017-11-07T01:11:45.539Z,18.10
2017-11-07T01:14:13.055Z,8.63
2017-11-07T01:16:40.543Z,10.17
2017-11-07T01:19:08.038Z,8.00
2017-11-07T01:21:35.540Z,10.37
2017-11-07T01:24:03.056Z,15.93
2017-11-07T01:26:30.542Z,11.80
2017-11-07T01:28:58.064Z,8.80
2017-11-07T01:31:25.568Z,12.50
2017-11-07T01:33:53.070Z,14.53
2017-11-07T01:36:20.594Z,10.70
2017-11-07T01:38:48.148Z,9.10
2017-11-07T01:41:15.704Z,12.57
2017-11-07T01:43:43.216Z,10.43
2017-11-07T01:46:10.716Z,11.10
2017-11-07T01:48:38.218Z,10.70
2017-11-07T01:51:05.741Z,14.33
2017-11-07T01:53:33.236Z,16.27
2017-11-07T01:56:00.744Z,9.00
2017-11-07T01:58:28.234Z,9.57
2017-11-07T02:00:55.838Z,13.73
2017-11-07T02:03:23.341Z,9.50
2017-11-07T02:05:50.837Z,17.53
2017-11-07T02:08:18.337Z,10.47
2017-11-07T02:10:45.851Z,13.40
2017-11-07T02:13:13.346Z,8.90
2017-11-07T02:15:40.856Z,14.57
2017-11-07T02:18:08.365Z,26.77
2017-11-07T02:20:35.856Z,12.40
2017-11-07T02:23:03.353Z,8.80
2017-11-07T02:25:30.857Z,11.43
2017-11-07T02:27:58.368Z,13.93
2017-11-07T02:30:25.866Z,11.07
2017-11-07T02:32:53.375Z,11.90
2017-11-07T02:35:20.883Z,10.20
2017-11-07T02:37:48.411Z,12.30
2017-11-07T02:40:15.908Z,10.93
2017-11-07T02:42:43.418Z,8.97
2017-11-07T02:45:10.903Z,9.83
2017-11-07T02:47:38.396Z,12.90
2017-11-07T02:50:05.908Z,10.03
2017-11-07T02:52:33.409Z,9.67
2017-11-07T02:55:00.904Z,14.73
2017-11-07T02:57:28.398Z,16.23
2017-11-07T02:59:55.898Z,10.80
2017-11-07T03:02:23.407Z,13.40
2017-11-07T03:04:50.918Z,11.33
2017-11-07T03:07:18.417Z,14.13
2017-11-07T03:09:45.923Z,10.57
2017-11-07T03:12:13.420Z,10.27
2017-11-07T03:14:40.935Z,11.37
2017-11-07T03:17:08.460Z,15.10
2017-11-07T03:19:35.974Z,13.60
2017-11-07T03:22:03.500Z,13.33
2017-11-07T03:24:31.002Z,10.43
2017-11-07T03:26:58.500Z,12.33
2017-11-07T03:29:26.017Z,13.70
2017-11-07T03:31:53.524Z,15.93
2017-11-07T03:34:21.033Z,13.80
2017-11-07T03:36:48.537Z,20.00
2017-11-07T03:39:16.045Z,12.90
2017-11-07T03:41:43.567Z,12.17
2017-11-07T03:44:11.072Z,13.67
2017-11-07T03:46:38.568Z,11.97
2017-11-07T03:49:06.078Z,16.90
2017-11-07T03:51:33.706Z,12.50
2017-11-07T03:54:01.221Z,15.33
2017-11-07T03:56:28.854Z,13.80
2017-11-07T03:58:56.364Z,13.20
2017-11-07T04:01:23.857Z,20.53
2017-11-07T04:03:51.359Z,19.60
2017-11-07T04:06:18.865Z,17.77
2017-11-07T04:08:46.389Z,18.60
2017-11-07T04:11:13.881Z,12.83
2017-11-07T04:13:41.393Z,17.50
2017-11-07T04:16:08.900Z,13.80
2017-11-07T04:18:36.409Z,18.57
2017-11-07T04:21:03.920Z,15.93
2017-11-07T04:23:31.412Z,19.20
2017-11-07T04:25:58.905Z,17.93
2017-11-07T04:28:26.427Z,13.50
2017-11-07T04:30:53.922Z,14.40
2017-11-07T04:33:21.414Z,15.00
2017-11-07T04:35:48.918Z,63.17
2017-11-07T04:38:16.425Z,18.80
2017-11-07T04:40:43.955Z,15.30
2017-11-07T04:43:11.461Z,18.47
2017-11-07T04:45:38.995Z,19.70
2017-11-07T04:48:06.509Z,16.47
2017-11-07T04:50:34.019Z,15.30
2017-11-07T04:53:01.517Z,15.90
2017-11-07T04:55:29.025Z,14.73
2017-11-07T04:57:56.537Z,19.13
2017-11-07T05:00:24.037Z,15.67
2017-11-07T05:02:51.550Z,17.00
2017-11-07T05:05:19.060Z,16.20
2017-11-07T05:07:46.558Z,19.10
2017-11-07T05:10:14.059Z,28.83
2017-11-07T05:12:41.566Z,14.10
2017-11-07T05:15:09.074Z,14.80
2017-11-07T05:17:36.591Z,20.30
2017-11-07T05:20:04.115Z,19.70
2017-11-07T05:22:31.622Z,15.57
2017-11-07T05:24:59.138Z,16.50
2017-11-07T05:27:26.715Z,17.07
2017-11-07T05:29:54.239Z,16.70
2017-11-07T05:32:21.724Z,18.70
2017-11-07T05:34:49.227Z,16.67
2017-11-07T05:37:16.743Z,20.70
2017-11-07T05:39:44.345Z,19.27
2017-11-07T05:42:11.860Z,19.80
2017-11-07T05:44:39.362Z,19.50
2017-11-07T05:47:06.864Z,18.00
2017-11-07T05:49:34.378Z,16.23
2017-11-07T05:52:01.901Z,17.67
2017-11-07T05:54:29.414Z,23.70
2017-11-07T05:56:56.912Z,32.17
2017-11-07T05:59:24.432Z,19.67
2017-11-07T06:01:51.928Z,17.87
2017-11-07T06:04:19.444Z,17.37
2017-11-07T06:06:46.954Z,17.27
2017-11-07T06:09:14.495Z,16.67
2017-11-07T06:11:42.009Z,18.00
2017-11-07T06:14:09.522Z,21.40
2017-11-07T06:16:37.040Z,16.80
2017-11-07T06:19:04.552Z,21.80
2017-11-07T06:21:32.054Z,18.33
2017-11-07T06:23:59.594Z,20.90
2017-11-07T06:26:27.097Z,18.73
2017-11-07T06:28:54.597Z,23.10
2017-11-07T06:31:22.107Z,21.03
2017-11-07T06:33:50.594Z,22.70
2017-11-07T06:36:18.100Z,20.10
2017-11-07T06:38:45.620Z,20.53
2017-11-07T06:41:13.118Z,40.83
2017-11-07T06:43:40.626Z,35.97
2017-11-07T06:46:08.134Z,22.67
2017-11-07T06:48:35.634Z,27.73
2017-11-07T06:51:03.141Z,27.17
2017-11-07T06:53:30.647Z,23.90
2017-11-07T06:55:58.173Z,22.17
2017-11-07T06:58:25.688Z,34.80
2017-11-07T07:00:53.194Z,26.17
2017-11-07T07:03:20.696Z,23.03
2017-11-07T07:05:48.193Z,22.87
2017-11-07T07:08:15.702Z,28.30
2017-11-07T07:10:43.215Z,30.43
2017-11-07T07:13:10.709Z,23.10
2017-11-07T07:15:38.326Z,24.23
2017-11-07T07:18:05.831Z,25.07
2017-11-07T07:20:33.330Z,27.57
2017-11-07T07:23:00.852Z,33.97
2017-11-07T07:25:28.373Z,29.03
2017-11-07T07:27:55.874Z,35.27
2017-11-07T07:30:23.371Z,52.57
2017-11-07T07:32:50.897Z,31.90
2017-11-07T07:35:18.411Z,32.03
2017-11-07T07:37:45.938Z,29.33
2017-11-07T07:40:13.441Z,28.97
2017-11-07T07:42:40.943Z,32.27
2017-11-07T07:45:08.436Z,34.07
2017-11-07T07:47:35.943Z,34.17
2017-11-07T07:50:03.470Z,40.13
2017-11-07T07:52:31.043Z,35.27
2017-11-07T07:54:58.603Z,32.23
2017-11-07T07:57:26.094Z,31.03
2017-11-07T07:59:53.595Z,32.13
2017-11-07T08:02:21.107Z,35.80
2017-11-07T08:04:48.603Z,34.33
2017-11-07T08:07:16.123Z,29.60
2017-11-07T08:09:43.630Z,25.70
2017-11-07T08:12:11.150Z,27.40
2017-11-07T08:14:38.648Z,29.37
2017-11-07T08:17:06.150Z,30.50
2017-11-07T08:19:33.659Z,27.27
2017-11-07T08:22:01.181Z,35.23
2017-11-07T08:24:28.797Z,28.10
2017-11-07T08:26:56.291Z,29.03
2017-11-07T08:29:23.818Z,28.40
2017-11-07T08:31:51.315Z,29.03
2017-11-07T08:34:18.819Z,39.20
2017-11-07T08:36:46.330Z,30.53
2017-11-07T08:39:13.867Z,28.17
2017-11-07T08:41:41.383Z,32.30
2017-11-07T08:44:08.883Z,40.40
2017-11-07T08:46:36.382Z,38.20
2017-11-07T08:49:03.883Z,26.43
2017-11-07T08:51:31.407Z,34.40
2017-11-07T08:53:58.916Z,39.13
2017-11-07T08:56:26.430Z,29.17
2017-11-07T08:58:53.926Z,33.97
2017-11-07T09:01:21.421Z,29.43
2017-11-07T09:03:48.934Z,28.63
2017-11-07T09:06:16.437Z,36.90
2017-11-07T09:08:43.932Z,36.87
2017-11-07T09:11:11.450Z,33.40
2017-11-07T09:13:38.971Z,31.07
2017-11-07T09:16:06.465Z,37.73
2017-11-07T09:18:33.966Z,33.53
2017-11-07T09:21:01.468Z,40.30
2017-11-07T09:23:28.983Z,38.73
2017-11-07T09:25:56.525Z,38.13
2017-11-07T09:28:24.027Z,38.00
2017-11-07T09:30:51.541Z,38.30
2017-11-07T09:33:19.042Z,49.30
2017-11-07T09:35:46.566Z,42.40
2017-11-07T09:38:14.071Z,38.67
2017-11-07T09:40:41.572Z,43.07
2017-11-07T09:43:09.144Z,34.40
2017-11-07T09:45:36.667Z,32.03
2017-11-07T09:48:04.183Z,50.03
2017-11-07T09:50:31.696Z,32.60
2017-11-07T09:52:59.202Z,32.73
2017-11-07T09:55:26.690Z,36.13
2017-11-07T09:57:54.195Z,40.43
2017-11-07T10:00:21.722Z,33.00
2017-11-07T10:02:49.246Z,32.50
2017-11-07T10:05:16.765Z,29.90
2017-11-07T10:07:44.268Z,32.03
2017-11-07T10:10:11.782Z,30.07
2017-11-07T10:12:39.613Z,27.83
2017-11-07T10:15:07.123Z,29.10
2017-11-07T10:17:34.614Z,31.77
2017-11-07T10:20:02.105Z,33.90
2017-11-07T10:22:29.611Z,31.27
2017-11-07T10:24:57.245Z,31.27
2017-11-07T10:27:24.777Z,43.77
2017-11-07T10:29:52.285Z,35.17
2017-11-07T10:32:19.828Z,31.00
2017-11-07T10:34:47.326Z,40.70
2017-11-07T10:37:14.829Z,37.57
2017-11-07T10:39:42.334Z,34.17
2017-11-07T10:42:09.845Z,59.87
2017-11-07T10:44:37.559Z,30.77
2017-11-07T10:47:05.083Z,32.37
2017-11-07T10:49:32.603Z,35.33
2017-11-07T10:52:00.174Z,30.80
2017-11-07T10:54:27.734Z,31.47
2017-11-07T10:56:55.259Z,22.63
2017-11-07T10:59:22.777Z,27.97
2017-11-07T11:01:50.293Z,39.20
2017-11-07T11:04:17.801Z,25.27
2017-11-07T11:06:45.307Z,26.70
2017-11-07T11:09:12.805Z,26.83
2017-11-07T11:11:40.322Z,23.83
2017-11-07T11:14:07.835Z,22.93
2017-11-07T11:16:35.334Z,27.13
2017-11-07T11:19:02.827Z,25.60
2017-11-07T11:21:30.345Z,22.93
2017-11-07T11:23:57.872Z,22.40
2017-11-07T11:26:25.369Z,53.20
2017-11-07T11:28:52.861Z,24.80
2017-11-07T11:31:20.383Z,22.63
2017-11-07T11:33:47.891Z,20.43
2017-11-07T11:36:15.513Z,24.73
2017-11-07T11:38:43.073Z,21.20
2017-11-07T11:41:10.581Z,23.87
2017-11-07T11:43:38.090Z,20.93
2017-11-07T11:46:05.607Z,22.10
2017-11-07T11:48:33.128Z,24.10
2017-11-07T11:51:00.653Z,25.17
2017-11-07T11:53:28.147Z,26.97
2017-11-07T11:55:55.669Z,23.00
2017-11-07T11:58:23.167Z,25.07
2017-11-07T12:00:50.660Z,25.30
2017-11-07T12:03:18.190Z,25.10
2017-11-07T12:05:45.693Z,21.33
2017-11-07T12:08:13.211Z,22.40
2017-11-07T12:10:40.712Z,21.00
2017-11-07T12:13:08.235Z,18.80
2017-11-07T12:15:35.768Z,22.57
2017-11-07T12:18:03.267Z,21.53
2017-11-07T12:20:30.829Z,23.70
2017-11-07T12:22:58.344Z,22.43
2017-11-07T12:25:25.854Z,22.93
2017-11-07T12:27:53.378Z,20.97
2017-11-07T12:30:21.016Z,21.60
2017-11-07T12:32:48.541Z,24.33
2017-11-07T12:35:16.055Z,24.10
2017-11-07T12:37:43.575Z,23.83
2017-11-07T12:40:11.078Z,20.47
2017-11-07T12:42:38.587Z,20.90
2017-11-07T12:45:06.101Z,28.10
2017-11-07T12:47:33.609Z,23.17
2017-11-07T12:53:03.188Z,19.63
2017-11-07T12:55:30.702Z,19.97
2017-11-07T12:57:58.214Z,21.47
2017-11-07T13:00:25.736Z,26.93
2017-11-07T13:02:53.252Z,21.73
2017-11-07T13:05:20.753Z,21.43
2017-11-07T13:07:48.258Z,21.30
2017-11-07T13:10:15.786Z,22.43
2017-11-07T13:12:43.281Z,26.13
2017-11-07T13:15:10.787Z,21.70
2017-11-07T13:17:38.401Z,21.50
2017-11-07T13:20:05.921Z,23.60
2017-11-07T13:22:33.463Z,20.73
2017-11-07T13:25:00.973Z,25.57
2017-11-07T13:27:28.505Z,24.10
2017-11-07T13:29:56.026Z,22.07
2017-11-07T13:32:23.541Z,23.27
2017-11-07T13:34:51.068Z,33.57
2017-11-07T13:37:18.668Z,33.83
2017-11-07T13:39:46.166Z,26.70
2017-11-07T13:42:13.664Z,19.50
2017-11-07T13:44:41.183Z,25.13
2017-11-07T13:47:08.673Z,24.80
2017-11-07T13:49:36.183Z,32.13
2017-11-07T13:52:03.686Z,24.40
2017-11-07T13:54:31.222Z,21.10
2017-11-07T13:56:58.725Z,19.83
2017-11-07T13:59:26.252Z,18.83
2017-11-07T14:01:53.844Z,20.63
2017-11-07T14:04:21.403Z,17.77
2017-11-07T14:06:48.927Z,16.90
2017-11-07T14:09:16.465Z,19.33
2017-11-07T14:11:43.975Z,18.00
2017-11-07T14:14:11.593Z,22.17
2017-11-07T14:16:39.101Z,16.33
2017-11-07T14:19:06.606Z,25.47
2017-11-07T14:21:34.109Z,18.77
2017-11-07T14:24:01.622Z,18.70
2017-11-07T14:26:29.130Z,37.40
2017-11-07T14:28:56.639Z,19.60
2017-11-07T14:31:24.153Z,19.23
2017-11-07T14:33:51.654Z,20.13
2017-11-07T14:36:19.183Z,17.83
2017-11-07T14:38:46.686Z,24.13
2017-11-07T14:41:14.192Z,21.87
2017-11-07T14:43:41.706Z,24.17
2017-11-07T14:46:09.494Z,24.73
2017-11-07T14:48:37.006Z,23.53
2017-11-07T14:51:04.529Z,26.13
2017-11-07T14:53:32.045Z,20.90
2017-11-07T14:55:59.546Z,21.53
2017-11-07T14:58:27.050Z,26.73
2017-11-07T15:00:54.558Z,42.53
2017-11-07T15:03:22.061Z,24.57
2017-11-07T15:05:49.606Z,20.53
2017-11-07T15:08:17.157Z,21.50
2017-11-07T15:10:44.672Z,22.60
2017-11-07T15:13:12.193Z,24.17
2017-11-07T15:15:39.735Z,23.10
2017-11-07T15:18:07.241Z,28.03
2017-11-07T15:20:34.754Z,28.13
2017-11-07T15:23:02.375Z,24.07
2017-11-07T15:25:29.904Z,22.30
2017-11-07T15:27:57.688Z,22.00
2017-11-07T15:30:25.210Z,24.70
2017-11-07T15:32:52.748Z,25.47
2017-11-07T15:35:20.289Z,24.07
2017-11-07T15:37:47.834Z,22.80
2017-11-07T15:40:15.366Z,29.13
2017-11-07T15:42:42.884Z,35.23
2017-11-07T15:45:10.402Z,28.40
2017-11-07T15:47:37.910Z,26.83
2017-11-07T15:50:05.423Z,24.23
2017-11-07T15:52:32.933Z,27.50
2017-11-07T15:55:00.476Z,27.03
2017-11-07T15:57:28.163Z,27.73
2017-11-07T15:59:55.694Z,27.90
2017-11-07T16:02:23.193Z,34.03
2017-11-07T16:04:50.736Z,28.37
2017-11-07T16:07:18.241Z,30.80
2017-11-07T16:09:45.743Z,25.43
2017-11-07T16:12:13.540Z,26.80
2017-11-07T16:14:41.044Z,23.80
2017-11-07T16:17:08.578Z,30.07
2017-11-07T16:19:36.087Z,29.53
2017-11-07T16:22:03.617Z,25.20
2017-11-07T16:24:31.159Z,22.80
2017-11-07T16:26:58.689Z,26.90
2017-11-07T16:29:26.209Z,26.80
2017-11-07T16:31:53.762Z,26.20
2017-11-07T16:34:21.318Z,37.43
2017-11-07T16:36:48.851Z,26.70
2017-11-07T16:39:16.364Z,26.70
2017-11-07T16:41:43.895Z,30.13
2017-11-07T16:44:11.399Z,27.97
2017-11-07T16:46:38.899Z,25.90
2017-11-07T16:49:06.406Z,25.37
2017-11-07T16:51:33.923Z,24.50
2017-11-07T16:54:01.539Z,28.57
2017-11-07T16:56:29.045Z,31.77
2017-11-07T16:58:56.563Z,26.63
2017-11-07T17:01:24.306Z,31.20
2017-11-07T17:03:51.807Z,23.93
2017-11-07T17:06:19.321Z,27.80
2017-11-07T17:08:46.832Z,32.10
2017-11-07T17:11:14.339Z,31.90
2017-11-07T17:13:41.880Z,30.07
2017-11-07T17:16:09.393Z,30.50
2017-11-07T17:18:36.925Z,31.87
2017-11-07T17:21:04.442Z,29.80
2017-11-07T17:23:31.976Z,33.10
2017-11-07T17:25:59.645Z,34.23
2017-11-07T17:28:27.145Z,32.60
2017-11-07T17:30:54.707Z,58.13
2017-11-07T17:33:22.221Z,38.57
2017-11-07T17:35:49.751Z,38.07
2017-11-07T17:38:17.266Z,33.03
2017-11-07T17:40:44.781Z,35.83
2017-11-07T17:43:12.291Z,43.50
2017-11-07T17:45:39.798Z,29.03
2017-11-07T17:48:07.320Z,33.20
2017-11-07T17:50:34.833Z,49.17
2017-11-07T17:53:02.357Z,39.23
2017-11-07T17:55:29.888Z,30.83
2017-11-07T17:57:57.403Z,30.33
2017-11-07T18:00:24.938Z,31.33
2017-11-07T18:02:52.454Z,36.93
2017-11-07T18:05:20.011Z,33.13
2017-11-07T18:07:47.550Z,35.80
2017-11-07T18:10:15.056Z,34.20
2017-11-07T18:12:42.613Z,36.73
2017-11-07T18:15:10.110Z,36.70
2017-11-07T18:17:37.648Z,36.33
2017-11-07T18:20:05.202Z,36.70
2017-11-07T18:22:32.718Z,35.83
2017-11-07T18:25:00.241Z,35.83
2017-11-07T18:27:27.770Z,47.50
2017-11-07T18:29:55.310Z,38.57
2017-11-07T18:32:22.834Z,39.50
2017-11-07T18:34:50.372Z,38.77
2017-11-07T18:37:17.928Z,42.57
2017-11-07T18:39:45.453Z,44.13
2017-11-07T18:42:12.980Z,43.97
2017-11-07T18:44:40.528Z,39.33
2017-11-07T18:47:08.038Z,44.80
2017-11-07T18:49:35.545Z,42.40
2017-11-07T18:52:03.092Z,45.53
2017-11-07T18:54:30.682Z,42.57
2017-11-07T18:56:58.248Z,41.40
2017-11-07T18:59:25.784Z,38.13
2017-11-07T19:01:53.281Z,43.37
2017-11-07T19:04:20.829Z,42.27
2017-11-07T19:06:48.476Z,114.83
2017-11-07T19:09:16.009Z,123.23
2017-11-07T19:11:43.528Z,57.90
2017-11-07T19:14:11.051Z,55.20
2017-11-07T19:16:38.939Z,47.53
2017-11-07T19:19:06.451Z,43.30
2017-11-07T19:21:34.077Z,42.17
2017-11-07T19:24:01.583Z,43.27
2017-11-07T19:26:29.139Z,44.70
2017-11-07T19:28:56.665Z,40.70
2017-11-07T19:31:24.168Z,42.20
2017-11-07T19:33:51.738Z,43.53
2017-11-07T19:36:19.287Z,36.67
2017-11-07T19:38:46.809Z,33.10
2017-11-07T19:41:14.333Z,38.67
2017-11-07T19:43:41.900Z,37.57
2017-11-07T19:46:09.415Z,36.20
2017-11-07T19:48:36.957Z,39.47
2017-11-07T19:51:04.472Z,32.33
2017-11-07T19:53:32.011Z,46.77
2017-11-07T19:55:59.532Z,31.77
2017-11-07T19:58:27.051Z,38.40
2017-11-07T20:00:54.575Z,38.30
2017-11-07T20:03:22.177Z,38.53
2017-11-07T20:05:49.687Z,39.77
2017-11-07T20:08:17.207Z,32.97
2017-11-07T20:10:44.750Z,31.33
2017-11-07T20:13:12.301Z,37.47
2017-11-07T20:15:39.823Z,36.97
2017-11-07T20:18:07.347Z,32.53
2017-11-07T20:20:34.903Z,33.30
2017-11-07T20:23:02.436Z,30.60
2017-11-07T20:25:29.958Z,43.47
2017-11-07T20:27:57.611Z,53.80
2017-11-07T20:30:25.120Z,36.53
2017-11-07T20:32:52.641Z,34.70
2017-11-07T20:35:20.288Z,27.40
2017-11-07T20:37:47.825Z,29.03
2017-11-07T20:40:15.385Z,28.47
2017-11-07T20:42:42.905Z,27.83
2017-11-07T20:45:10.425Z,27.87
2017-11-07T20:47:37.949Z,28.67
2017-11-07T20:50:05.477Z,31.00
2017-11-07T20:52:33.047Z,30.40
2017-11-07T20:55:00.553Z,29.60
2017-11-07T20:57:28.088Z,32.60
2017-11-07T20:59:55.594Z,37.10
2017-11-07T21:02:23.119Z,34.30
2017-11-07T21:04:50.646Z,35.83
2017-11-07T21:07:18.153Z,38.40
2017-11-07T21:09:45.683Z,39.57
2017-11-07T21:12:13.219Z,41.07
2017-11-07T21:14:40.730Z,36.47
2017-11-07T21:17:08.406Z,35.10
2017-11-07T21:19:36.711Z,34.83
2017-11-07T21:22:04.247Z,46.10
2017-11-07T21:24:31.800Z,34.97
2017-11-07T21:26:59.325Z,40.50
2017-11-07T21:29:26.821Z,42.77
2017-11-07T21:31:54.421Z,46.77
2017-11-07T21:34:22.922Z,45.77
2017-11-07T21:36:50.423Z,41.97
2017-11-07T21:39:17.936Z,39.30
2017-11-07T21:41:45.443Z,44.20
2017-11-07T21:44:12.988Z,41.90
2017-11-07T21:46:40.488Z,43.40
2017-11-07T21:49:08.011Z,47.60
2017-11-07T21:51:35.519Z,47.60
2017-11-07T21:54:03.059Z,40.00
2017-11-07T21:56:30.590Z,48.47
2017-11-07T21:58:58.106Z,44.53
2017-11-07T22:01:25.639Z,46.20
2017-11-07T22:03:53.142Z,42.77
2017-11-07T22:06:20.646Z,46.87
2017-11-07T22:08:48.159Z,45.90
2017-11-07T22:11:15.657Z,42.40
2017-11-07T22:13:43.258Z,39.30
2017-11-07T22:16:10.784Z,42.53
2017-11-07T22:18:38.289Z,37.77
2017-11-07T22:21:05.818Z,46.17
2017-11-07T22:23:39.094Z,47.63
2017-11-07T22:26:06.618Z,40.43
2017-11-07T22:28:34.146Z,47.60
2017-11-07T22:31:01.671Z,47.30
2017-11-07T22:33:29.207Z,48.87
2017-11-07T22:35:56.706Z,44.57
2017-11-07T22:38:24.218Z,45.40
2017-11-07T22:40:51.737Z,47.07
2017-11-07T22:43:19.290Z,45.80
2017-11-07T22:45:46.801Z,47.10
2017-11-07T22:48:14.306Z,47.47
2017-11-07T22:50:41.807Z,49.50
2017-11-07T22:53:09.334Z,46.80
2017-11-07T22:55:36.842Z,48.13
2017-11-07T22:58:04.454Z,47.03
2017-11-07T23:00:32.096Z,52.17
2017-11-07T23:02:59.611Z,46.80
2017-11-07T23:05:27.127Z,48.50
2017-11-07T23:07:54.642Z,51.70
2017-11-07T23:10:22.225Z,45.73
2017-11-07T23:12:49.754Z,58.00
2017-11-07T23:15:17.295Z,54.37
2017-11-07T23:17:44.798Z,55.10
2017-11-07T23:20:12.337Z,53.77
2017-11-07T23:22:39.870Z,52.57
2017-11-07T23:25:07.375Z,58.20
2017-11-07T23:27:34.933Z,56.10
2017-11-07T23:30:02.454Z,53.87
2017-11-07T23:32:29.954Z,54.03
2017-11-07T23:34:57.483Z,60.73
2017-11-07T23:37:24.989Z,58.87
2017-11-07T23:39:52.495Z,58.10
2017-11-07T23:42:20.114Z,66.60
2017-11-07T23:44:47.615Z,59.50
2017-11-07T23:47:15.121Z,56.00
2017-11-07T23:49:42.622Z,56.60
2017-11-07T23:52:10.123Z,65.00
2017-11-07T23:54:37.651Z,53.87
2017-11-07T23:57:05.151Z,57.73
2017-11-07T23:59:32.674Z,54.90
